Time;durP1;ratioP1;P1;durP2;ratioP2;P2;SDS_P1;SDS_P2;PMS_P1;PMS_P2;Temp;Humidity;BMP_temperature;BMP_pressure;BME280_temperature;BME280_humidity;BME280_pressure;Samples;Min_cycle;Max_cycle;Signal;HPM_P1;HPM_P2
2022/08/10 00:00:20;;;;;;;2.90;2.60;;;26.10;43.30;27.20;101722.00;;;;5028749;28;20171;-43
2022/08/10 00:02:50;;;;;;;2.97;2.53;;;26.10;43.50;27.20;101720.00;;;;5042048;28;20151;-42
2022/08/10 00:05:16;;;;;;;2.50;2.30;;;26.10;43.40;27.10;101716.00;;;;5028428;28;20492;-42
2022/08/10 00:07:42;;;;;;;2.60;2.40;;;26.00;43.50;27.10;101724.00;;;;5028233;28;20221;-43
2022/08/10 00:10:08;;;;;;;2.55;2.35;;;26.00;43.40;27.10;101719.00;;;;5028266;28;20175;-43
2022/08/10 00:12:34;;;;;;;4.68;2.38;;;26.00;43.50;27.10;101714.00;;;;5028350;28;20203;-42
2022/08/10 00:15:00;;;;;;;2.40;2.20;;;26.00;43.50;27.10;101716.00;;;;5028144;28;20171;-42
2022/08/10 00:17:26;;;;;;;2.75;2.50;;;26.00;43.50;26.80;101713.00;;;;5027987;28;20189;-43
2022/08/10 00:19:52;;;;;;;2.58;2.40;;;26.00;43.60;27.00;101708.00;;;;5028461;28;20612;-42
2022/08/10 00:22:17;;;;;;;3.30;2.40;;;26.00;43.70;27.00;101708.00;;;;5028187;28;20228;-43
2022/08/10 00:24:43;;;;;;;2.90;2.60;;;25.90;43.60;26.90;101706.00;;;;5028282;28;20182;-42
2022/08/10 00:27:09;;;;;;;3.63;2.70;;;25.90;43.70;26.90;101715.00;;;;5026664;28;20253;-42
2022/08/10 00:29:35;;;;;;;2.70;2.50;;;25.90;43.70;26.90;101712.00;;;;5028016;28;20270;-42
2022/08/10 00:32:01;;;;;;;3.22;2.60;;;25.80;43.60;26.90;101718.00;;;;5027900;28;20213;-42
2022/08/10 00:34:28;;;;;;;3.88;2.50;;;25.90;43.70;26.90;101710.00;;;;5027935;28;20206;-42
2022/08/10 00:36:54;;;;;;;2.70;2.50;;;25.90;43.70;26.90;101699.00;;;;5027442;28;20210;-43
2022/08/10 00:39:19;;;;;;;2.70;2.50;;;25.80;43.60;26.90;101709.00;;;;5027893;28;20541;-43
2022/08/10 00:41:45;;;;;;;2.47;2.28;;;25.80;43.70;26.90;101698.00;;;;5042910;28;20182;-42
2022/08/10 00:44:11;;;;;;;2.95;2.65;;;25.80;43.70;26.90;101697.00;;;;5027690;28;20175;-42
2022/08/10 00:46:36;;;;;;;2.80;2.40;;;25.80;43.70;26.80;101693.00;;;;5027283;28;20416;-43
2022/08/10 00:49:02;;;;;;;4.80;2.53;;;25.80;43.60;26.80;101696.00;;;;5027539;28;20203;-44
2022/08/10 00:51:28;;;;;;;2.88;2.40;;;25.80;43.60;26.80;101693.00;;;;5027249;28;20226;-42
2022/08/10 00:53:54;;;;;;;3.55;2.47;;;25.80;43.80;26.80;101690.00;;;;5027050;28;20178;-42
2022/08/10 00:56:19;;;;;;;2.80;2.42;;;25.80;43.60;26.80;101701.00;;;;5042536;28;20190;-42
2022/08/10 00:58:45;;;;;;;3.33;2.30;;;25.80;43.70;26.80;101700.00;;;;5027477;28;20178;-42
2022/08/10 01:01:11;;;;;;;2.90;2.60;;;25.80;43.60;26.80;101696.00;;;;5035577;28;20163;-42
2022/08/10 01:03:37;;;;;;;2.50;2.30;;;25.80;43.60;26.80;101690.00;;;;5039309;28;20233;-42
2022/08/10 01:06:24;;;;;;;2.92;2.70;;;25.80;43.60;26.80;101697.00;;;;5033300;28;20691;-42
2022/08/10 01:09:42;;;;;;;2.60;2.40;;;25.80;43.80;26.80;101701.00;;;;5041194;28;20164;-42
2022/08/10 01:12:41;;;;;;;3.47;2.78;;;25.80;43.80;26.80;101699.00;;;;5042070;28;20747;-42
2022/08/10 01:15:10;;;;;;;3.83;2.40;;;25.80;43.80;26.70;101697.00;;;;5026642;28;20278;-42
2022/08/10 01:18:12;;;;;;;2.90;2.70;;;25.80;43.90;26.70;101700.00;;;;5028870;28;20183;-42
2022/08/10 01:21:37;;;;;;;2.70;2.50;;;25.70;43.70;26.70;101695.00;;;;5028259;28;20162;-43
2022/08/10 01:24:33;;;;;;;4.47;2.78;;;25.70;43.90;26.70;101692.00;;;;5012992;28;20549;-43
2022/08/10 01:27:25;;;;;;;3.33;2.60;;;25.70;44.00;26.70;101692.00;;;;5026511;28;20290;-43
2022/08/10 01:30:10;;;;;;;3.42;2.63;;;25.70;44.00;26.70;101697.00;;;;5039480;28;20163;-43
2022/08/10 01:33:08;;;;;;;4.43;2.63;;;25.80;43.90;26.70;101697.00;;;;5040095;28;20187;-43
2022/08/10 01:35:53;;;;;;;2.65;2.45;;;25.70;44.00;26.70;101692.00;;;;5038669;28;20147;-44
2022/08/10 01:38:33;;;;;;;2.70;2.50;;;25.70;44.20;26.60;101693.00;;;;5041615;28;20201;-43
2022/08/10 01:41:07;;;;;;;3.97;2.60;;;25.70;44.20;26.60;101683.00;;;;5026815;28;20155;-43
2022/08/10 01:43:38;;;;;;;3.00;2.60;;;25.70;44.30;26.60;101686.00;;;;5041377;28;20162;-42
2022/08/10 01:46:03;;;;;;;3.60;2.58;;;25.70;45.30;26.60;101683.00;;;;5040924;28;20697;-43
2022/08/10 01:48:46;;;;;;;2.72;2.30;;;25.70;44.60;26.60;101691.00;;;;5041487;28;20175;-43
2022/08/10 01:51:24;;;;;;;2.60;2.40;;;25.70;44.50;26.50;101687.00;;;;5039719;28;20151;-43
2022/08/10 01:53:55;;;;;;;2.80;2.50;;;25.70;44.80;26.60;101686.00;;;;5041201;28;20155;-42
2022/08/10 01:56:23;;;;;;;2.63;2.42;;;25.70;44.70;26.60;101691.00;;;;5026585;28;20655;-43
2022/08/10 01:58:51;;;;;;;2.85;2.40;;;25.60;44.80;26.60;101697.00;;;;5041459;28;20650;-42
2022/08/10 02:01:19;;;;;;;2.60;2.40;;;25.60;44.90;26.60;101689.00;;;;5041544;28;20257;-42
2022/08/10 02:03:47;;;;;;;2.58;2.38;;;25.60;44.90;26.60;101701.00;;;;5041353;28;20167;-42
2022/08/10 02:06:12;;;;;;;2.63;2.42;;;25.60;45.00;26.50;101699.00;;;;5041416;28;20233;-42
2022/08/10 02:08:38;;;;;;;2.50;2.30;;;25.60;45.00;26.50;101693.00;;;;5041576;28;20199;-43
2022/08/10 02:11:04;;;;;;;2.95;2.42;;;25.60;45.10;26.50;101681.00;;;;5041528;28;20645;-42
2022/08/10 02:13:29;;;;;;;2.75;2.50;;;25.60;45.30;26.50;101695.00;;;;5041568;28;20175;-42
2022/08/10 02:15:56;;;;;;;2.80;2.60;;;25.60;45.30;26.50;101694.00;;;;5041439;28;20222;-42
2022/08/10 02:18:22;;;;;;;3.00;2.60;;;25.60;45.50;26.50;101685.00;;;;5040418;28;20179;-42
2022/08/10 02:20:49;;;;;;;3.03;2.50;;;25.60;45.50;26.50;101683.00;;;;5041530;28;20703;-42
2022/08/10 02:23:28;;;;;;;3.03;2.70;;;25.50;45.60;26.50;101684.00;;;;5040848;28;20225;-42
2022/08/10 02:25:54;;;;;;;2.63;2.42;;;25.50;45.70;26.50;101692.00;;;;5041131;28;20191;-42
2022/08/10 02:28:21;;;;;;;3.40;2.65;;;25.50;45.70;26.40;101683.00;;;;5041259;28;20174;-44
2022/08/10 02:30:48;;;;;;;3.03;2.60;;;25.50;45.70;26.40;101691.00;;;;5041546;28;20271;-43
2022/08/10 02:33:15;;;;;;;4.13;2.70;;;25.50;45.70;26.40;101701.00;;;;5042973;28;20278;-44
2022/08/10 02:35:40;;;;;;;2.60;2.40;;;25.50;45.70;26.40;101671.00;;;;5044703;28;20193;-44
2022/08/10 02:38:06;;;;;;;2.50;2.30;;;25.50;45.70;26.40;101712.00;;;;5042277;28;20167;-42
2022/08/10 02:40:38;;;;;;;2.90;2.67;;;25.40;45.80;26.30;101711.00;;;;5041783;28;20429;-43
2022/08/10 02:43:19;;;;;;;3.20;2.60;;;25.40;45.80;26.30;101712.00;;;;5040982;28;20186;-43
2022/08/10 02:45:48;;;;;;;2.97;2.67;;;25.40;45.70;26.30;101708.00;;;;5025916;28;20441;-43
2022/08/10 02:48:46;;;;;;;2.85;2.50;;;25.40;45.90;26.30;101709.00;;;;5025701;28;20175;-44
2022/08/10 02:51:22;;;;;;;4.75;3.10;;;25.40;45.90;26.30;101708.00;;;;5016644;28;20191;-42
2022/08/10 02:54:02;;;;;;;2.88;2.67;;;25.40;46.00;26.10;101704.00;;;;5041062;28;20163;-43
2022/08/10 02:56:42;;;;;;;2.78;2.58;;;25.40;45.90;26.20;101703.00;;;;5040021;28;20182;-43
2022/08/10 02:59:12;;;;;;;3.20;2.67;;;25.40;46.10;26.20;101697.00;;;;5039593;28;20171;-43
2022/08/10 03:01:42;;;;;;;2.83;2.63;;;25.30;46.10;26.20;101702.00;;;;5040792;28;20217;-42
2022/08/10 03:04:33;;;;;;;2.92;2.67;;;25.30;46.20;26.20;101705.00;;;;5041440;28;20531;-43
2022/08/10 03:07:02;;;;;;;4.28;2.75;;;25.30;46.20;26.10;101693.00;;;;5024532;28;20293;-42
2022/08/10 03:09:28;;;;;;;3.05;2.75;;;25.30;46.30;26.10;101685.00;;;;5024124;28;20571;-42
2022/08/10 03:11:54;;;;;;;3.03;2.78;;;25.30;46.30;26.10;101702.00;;;;5041039;28;20237;-42
2022/08/10 03:14:20;;;;;;;3.30;2.70;;;25.20;46.20;26.10;101690.00;;;;5040687;28;20539;-42
2022/08/10 03:16:46;;;;;;;2.80;2.60;;;25.20;46.20;26.10;101699.00;;;;5041093;28;20186;-42
2022/08/10 03:19:12;;;;;;;2.75;2.55;;;25.20;46.40;26.10;101695.00;;;;5025876;28;20729;-43
2022/08/10 03:21:37;;;;;;;3.25;2.60;;;25.20;46.40;26.10;101703.00;;;;5040744;28;20654;-43
2022/08/10 03:24:04;;;;;;;2.80;2.60;;;25.20;46.60;26.00;101696.00;;;;5040497;28;20179;-43
2022/08/10 03:26:30;;;;;;;2.70;2.50;;;25.20;46.60;26.00;101697.00;;;;5040595;28;20229;-44
2022/08/10 03:28:57;;;;;;;2.95;2.70;;;25.10;46.50;26.00;101693.00;;;;5042251;28;20763;-43
2022/08/10 03:31:25;;;;;;;2.97;2.67;;;25.10;46.50;26.00;101692.00;;;;5044459;28;20661;-44
2022/08/10 03:33:51;;;;;;;3.25;2.72;;;25.10;46.70;26.00;101689.00;;;;5044381;28;20167;-43
2022/08/10 03:36:17;;;;;;;5.63;2.90;;;25.10;46.70;26.00;101691.00;;;;5044106;28;20191;-43
2022/08/10 03:38:44;;;;;;;3.55;2.83;;;25.10;46.90;25.90;101696.00;;;;5044129;28;20722;-44
2022/08/10 03:41:11;;;;;;;2.70;2.50;;;25.10;47.00;25.90;101683.00;;;;5044088;28;20163;-43
2022/08/10 03:43:37;;;;;;;3.13;2.53;;;25.00;47.10;25.90;101688.00;;;;5044316;28;20618;-43
2022/08/10 03:46:05;;;;;;;3.50;3.20;;;25.00;47.20;25.90;101692.00;;;;5041114;28;20234;-43
2022/08/10 03:48:31;;;;;;;3.92;3.40;;;25.00;47.40;25.90;101678.00;;;;5043035;28;20178;-43
2022/08/10 03:50:58;;;;;;;5.60;3.25;;;25.00;47.30;25.80;101680.00;;;;5043251;28;20539;-41
2022/08/10 03:53:23;;;;;;;3.67;2.80;;;24.90;47.50;25.80;101678.00;;;;5047193;28;20195;-43
2022/08/10 03:55:49;;;;;;;3.17;2.88;;;24.90;47.60;25.80;101684.00;;;;5046298;28;20214;-43
2022/08/10 03:58:15;;;;;;;3.95;3.30;;;24.90;47.60;25.80;101684.00;;;;5043045;28;20190;-43
2022/08/10 04:00:41;;;;;;;3.00;2.80;;;24.90;47.60;25.80;101682.00;;;;5043831;28;20689;-43
2022/08/10 04:03:06;;;;;;;3.95;2.83;;;24.90;47.60;25.70;101650.00;;;;5041363;28;20186;-43
2022/08/10 04:05:32;;;;;;;3.72;2.60;;;24.90;47.50;25.70;101693.00;;;;5042793;28;20258;-42
2022/08/10 04:08:02;;;;;;;2.83;2.63;;;24.80;47.50;25.70;101689.00;;;;5028142;28;20179;-42
2022/08/10 04:10:28;;;;;;;3.20;2.90;;;24.80;47.50;25.70;101694.00;;;;5028228;28;20818;-42
2022/08/10 04:12:54;;;;;;;4.88;2.90;;;24.80;47.50;25.70;101701.00;;;;5028288;28;20222;-42
2022/08/10 04:15:20;;;;;;;5.57;3.00;;;24.80;47.80;25.70;101698.00;;;;5028013;28;20186;-41
2022/08/10 04:17:45;;;;;;;3.72;2.78;;;24.80;47.80;25.70;101704.00;;;;5027893;28;20163;-42
2022/08/10 04:20:58;;;;;;;2.88;2.67;;;24.80;47.60;25.60;101688.00;;;;5043431;28;20835;-42
2022/08/10 04:23:27;;;;;;;13.18;3.10;;;24.80;47.70;25.60;101686.00;;;;5027372;28;20249;-43
2022/08/10 04:25:53;;;;;;;3.00;2.70;;;24.70;47.70;25.60;101692.00;;;;5042732;28;20214;-43
2022/08/10 04:28:18;;;;;;;3.00;2.80;;;24.70;47.70;25.60;101691.00;;;;5043034;28;20664;-43
2022/08/10 04:30:45;;;;;;;5.03;2.67;;;24.70;47.80;25.50;101694.00;;;;5043353;28;20657;-43
2022/08/10 04:33:10;;;;;;;5.05;3.00;;;24.70;47.90;25.50;101699.00;;;;5042658;28;20834;-41
2022/08/10 04:35:36;;;;;;;3.92;2.70;;;24.70;48.10;25.50;101693.00;;;;5042871;28;20205;-43
2022/08/10 04:38:02;;;;;;;12.32;3.40;;;24.70;48.20;25.50;101708.00;;;;5043031;28;20171;-43
2022/08/10 04:40:29;;;;;;;6.93;3.03;;;24.70;48.90;25.50;101705.00;;;;5042071;28;20237;-43
2022/08/10 04:42:56;;;;;;;3.70;2.90;;;24.70;48.70;25.50;101705.00;;;;5042174;28;20222;-44
2022/08/10 04:45:22;;;;;;;4.53;2.70;;;24.70;48.30;25.50;101708.00;;;;5042059;28;20818;-40
2022/08/10 04:47:47;;;;;;;4.75;3.15;;;24.70;48.10;25.50;101693.00;;;;5027460;28;20171;-43
2022/08/10 04:50:13;;;;;;;4.03;3.07;;;24.70;48.00;25.50;101704.00;;;;5026830;28;20665;-42
2022/08/10 04:52:39;;;;;;;4.32;3.20;;;24.80;48.00;25.50;101694.00;;;;5027110;28;20230;-41
2022/08/10 04:55:05;;;;;;;4.40;3.08;;;24.80;48.20;25.50;101692.00;;;;5042492;28;20282;-41
2022/08/10 04:57:31;;;;;;;5.40;3.03;;;24.70;48.10;25.50;101702.00;;;;5026997;28;20187;-42
2022/08/10 04:59:56;;;;;;;5.15;3.03;;;24.70;48.20;25.50;101693.00;;;;5027221;28;20163;-41
2022/08/10 05:02:22;;;;;;;3.13;2.90;;;24.70;48.30;25.50;101701.00;;;;5026568;28;20298;-41
2022/08/10 05:04:48;;;;;;;3.65;3.00;;;24.70;48.10;25.50;101688.00;;;;5027143;28;20163;-41
2022/08/10 05:07:14;;;;;;;4.38;2.90;;;24.70;48.10;25.50;101694.00;;;;5026599;28;20562;-41
2022/08/10 05:09:40;;;;;;;3.40;2.80;;;24.70;48.10;25.50;101699.00;;;;5027443;28;20657;-41
2022/08/10 05:12:07;;;;;;;3.03;2.72;;;24.70;48.10;25.50;101702.00;;;;5030185;28;20214;-41
2022/08/10 05:14:32;;;;;;;3.15;2.92;;;24.70;48.20;25.50;101694.00;;;;5028360;28;20214;-41
2022/08/10 05:16:58;;;;;;;3.22;2.90;;;24.70;48.10;25.50;101700.00;;;;5026206;28;20693;-41
2022/08/10 05:19:25;;;;;;;3.40;3.10;;;24.70;48.00;25.50;101696.00;;;;5026827;28;20661;-41
2022/08/10 05:21:51;;;;;;;3.30;3.00;;;24.70;48.10;25.50;101704.00;;;;5038682;28;20178;-42
2022/08/10 05:24:16;;;;;;;3.90;3.10;;;24.70;48.00;25.50;101697.00;;;;5038194;28;20688;-43
2022/08/10 05:26:42;;;;;;;4.20;3.30;;;24.70;48.00;25.40;101700.00;;;;5028769;28;20227;-41
2022/08/10 05:29:08;;;;;;;4.27;3.80;;;24.70;47.90;25.40;101704.00;;;;5026527;28;20260;-41
2022/08/10 05:31:34;;;;;;;5.83;5.23;;;24.70;47.90;25.40;101704.00;;;;5026612;28;20242;-40
2022/08/10 05:33:59;;;;;;;4.75;3.65;;;24.70;47.80;25.40;101710.00;;;;5041752;28;20178;-44
2022/08/10 05:36:25;;;;;;;4.57;3.50;;;24.70;48.20;25.40;101704.00;;;;5041967;28;20191;-43
2022/08/10 05:38:51;;;;;;;3.80;3.50;;;24.70;48.00;25.40;101704.00;;;;5042073;28;20576;-46
2022/08/10 05:41:17;;;;;;;3.88;3.55;;;24.70;48.00;25.40;101712.00;;;;5042797;28;20171;-44
2022/08/10 05:43:43;;;;;;;4.32;3.38;;;24.70;47.80;25.40;101708.00;;;;5048366;28;20221;-42
2022/08/10 05:46:09;;;;;;;5.45;3.50;;;24.70;48.10;25.40;101717.00;;;;5034266;28;20206;-42
2022/08/10 05:48:35;;;;;;;4.85;3.15;;;24.70;48.70;25.30;101715.00;;;;5029258;28;20170;-43
2022/08/10 05:51:02;;;;;;;8.02;3.47;;;24.70;48.90;25.30;101712.00;;;;5026511;28;20174;-43
2022/08/10 05:53:27;;;;;;;4.95;3.40;;;24.70;49.10;25.30;101715.00;;;;5041414;28;20199;-43
2022/08/10 05:55:53;;;;;;;5.82;3.70;;;24.70;49.10;25.30;101706.00;;;;5041890;28;20245;-42
2022/08/10 05:58:19;;;;;;;5.63;3.70;;;24.70;49.40;25.30;101715.00;;;;5041802;28;20626;-44
2022/08/10 06:00:45;;;;;;;5.00;3.40;;;24.70;49.30;25.20;101717.00;;;;5026486;28;20175;-44
2022/08/10 06:03:11;;;;;;;4.60;3.38;;;24.70;49.30;25.20;101719.00;;;;5026405;28;20182;-44
2022/08/10 06:05:38;;;;;;;5.27;3.30;;;24.70;49.30;25.20;101724.00;;;;5040596;28;20171;-43
2022/08/10 06:08:18;;;;;;;4.13;3.60;;;24.70;49.40;25.20;101731.00;;;;5033165;28;20179;-42
2022/08/10 06:10:44;;;;;;;5.65;3.60;;;24.60;49.60;25.20;101722.00;;;;4857741;28;20377;-45
2022/08/10 06:15:56;;;;;;;4.80;3.72;;;24.70;49.60;25.20;101715.00;;;;5020319;28;20225;-42
2022/08/10 06:18:22;;;;;;;5.77;3.77;;;24.60;49.30;25.20;101714.00;;;;5019096;28;20211;-42
2022/08/10 06:20:49;;;;;;;4.43;3.60;;;24.60;49.40;25.20;101722.00;;;;5005402;28;20388;-42
2022/08/10 06:23:15;;;;;;;5.27;3.60;;;24.60;49.40;25.20;101723.00;;;;5019210;28;20249;-42
2022/08/10 06:25:41;;;;;;;6.50;3.73;;;24.50;49.40;25.10;101716.00;;;;5022180;28;20195;-44
2022/08/10 06:28:07;;;;;;;4.97;3.67;;;24.60;49.50;25.20;101726.00;;;;5026022;28;20183;-44
2022/08/10 06:30:33;;;;;;;4.93;3.63;;;24.50;49.50;25.20;101729.00;;;;4898120;28;22180;-44
2022/08/10 06:32:59;;;;;;;3.95;3.55;;;24.50;49.50;25.10;101742.00;;;;5042117;28;20712;-44
2022/08/10 06:35:27;;;;;;;5.20;3.60;;;24.50;49.50;25.10;101731.00;;;;5025066;28;20167;-42
2022/08/10 06:37:53;;;;;;;3.90;3.50;;;24.50;49.50;25.10;101735.00;;;;5026668;28;20175;-42
2022/08/10 06:40:19;;;;;;;4.13;3.42;;;24.50;49.50;25.10;101721.00;;;;5025433;28;20297;-44
2022/08/10 06:42:48;;;;;;;4.20;3.57;;;24.50;49.50;25.10;101725.00;;;;5025503;28;20167;-43
2022/08/10 06:45:22;;;;;;;5.70;3.37;;;24.50;49.50;25.10;101723.00;;;;5008779;28;20182;-42
2022/08/10 06:47:58;;;;;;;4.03;3.63;;;24.50;49.50;25.10;101728.00;;;;5025121;28;20167;-43
2022/08/10 06:50:34;;;;;;;4.10;3.50;;;24.50;49.70;25.10;101727.00;;;;5025851;28;20183;-42
2022/08/10 06:53:00;;;;;;;4.47;3.78;;;24.50;49.60;25.10;101732.00;;;;5026833;28;20190;-42
2022/08/10 06:55:26;;;;;;;4.10;3.70;;;24.50;50.10;25.10;101725.00;;;;5025848;28;20205;-43
2022/08/10 06:57:52;;;;;;;3.87;3.47;;;24.50;49.50;25.10;101724.00;;;;5008626;28;20258;-43
2022/08/10 07:00:18;;;;;;;3.90;3.20;;;24.50;49.60;25.10;101718.00;;;;5025171;28;20209;-43
2022/08/10 07:02:47;;;;;;;4.30;3.50;;;24.50;49.60;25.20;101732.00;;;;5025222;28;20254;-43
2022/08/10 07:05:20;;;;;;;3.53;3.22;;;24.50;49.50;25.10;101733.00;;;;5046319;28;20677;-43
2022/08/10 07:07:46;;;;;;;3.80;3.35;;;24.50;49.50;25.10;101735.00;;;;5029086;28;20171;-43
2022/08/10 07:10:15;;;;;;;6.25;3.70;;;24.50;49.50;25.10;101732.00;;;;5029286;28;20591;-45
2022/08/10 07:12:40;;;;;;;4.03;3.43;;;24.50;49.50;25.20;101730.00;;;;5012925;28;20195;-42
2022/08/10 07:15:07;;;;;;;5.13;3.23;;;24.60;49.60;25.20;101732.00;;;;5029101;28;20875;-43
2022/08/10 07:17:32;;;;;;;4.83;3.40;;;24.60;49.60;25.20;101736.00;;;;5012382;28;20335;-42
2022/08/10 07:19:58;;;;;;;3.80;3.50;;;24.60;49.60;25.20;101737.00;;;;5030464;28;20262;-43
2022/08/10 07:22:27;;;;;;;3.60;3.30;;;24.60;49.60;25.20;101731.00;;;;5028666;28;20221;-44
2022/08/10 07:24:53;;;;;;;4.37;3.40;;;24.60;49.60;25.20;101730.00;;;;5028983;28;20270;-44
2022/08/10 07:27:19;;;;;;;3.67;3.37;;;24.60;49.60;25.00;101733.00;;;;5028369;28;20195;-43
2022/08/10 07:29:45;;;;;;;3.70;3.40;;;24.70;49.60;25.20;101732.00;;;;5028140;28;20274;-43
2022/08/10 07:32:11;;;;;;;3.70;3.40;;;24.70;49.70;25.20;101726.00;;;;5028530;28;20201;-44
2022/08/10 07:34:37;;;;;;;3.65;3.20;;;24.70;49.60;25.20;101732.00;;;;5028446;28;20169;-44
2022/08/10 07:37:05;;;;;;;4.80;3.20;;;24.70;49.60;25.20;101729.00;;;;5028971;28;20195;-44
2022/08/10 07:39:42;;;;;;;3.47;3.20;;;24.70;49.60;25.20;101733.00;;;;5028762;28;20175;-44
2022/08/10 07:42:09;;;;;;;3.38;3.10;;;24.70;50.30;25.20;101729.00;;;;5029247;28;20182;-44
2022/08/10 07:44:34;;;;;;;3.70;3.30;;;24.70;49.60;25.20;101741.00;;;;5028263;28;20179;-43
2022/08/10 07:47:02;;;;;;;3.75;3.45;;;24.70;49.60;25.30;101735.00;;;;5028026;28;20629;-42
2022/08/10 07:49:33;;;;;;;3.50;3.20;;;24.70;49.80;25.30;101731.00;;;;5028379;28;20179;-43
2022/08/10 07:51:59;;;;;;;3.67;3.17;;;24.70;49.60;25.30;101738.00;;;;5028469;28;20179;-42
2022/08/10 07:54:26;;;;;;;3.50;3.20;;;24.70;49.80;25.30;101733.00;;;;5027967;28;20849;-43
2022/08/10 07:56:54;;;;;;;3.20;2.90;;;24.70;49.80;25.30;101728.00;;;;5043878;28;20282;-43
2022/08/10 07:59:30;;;;;;;3.47;3.17;;;24.80;49.80;25.40;101729.00;;;;5027963;28;20240;-43
2022/08/10 08:01:56;;;;;;;3.40;3.10;;;24.80;49.90;25.40;101730.00;;;;5027940;28;20232;-42
2022/08/10 08:04:23;;;;;;;3.55;3.13;;;24.80;49.70;25.40;101739.00;;;;5027619;28;20806;-42
2022/08/10 08:06:48;;;;;;;4.95;3.00;;;24.80;50.00;25.40;101736.00;;;;5027255;28;20218;-45
2022/08/10 08:09:14;;;;;;;3.30;3.00;;;24.80;49.90;25.40;101749.00;;;;5027561;28;20321;-42
2022/08/10 08:11:42;;;;;;;3.17;2.90;;;24.80;50.00;25.40;101740.00;;;;5027381;28;20286;-44
2022/08/10 08:14:08;;;;;;;2.95;2.75;;;24.80;50.10;25.50;101751.00;;;;5043206;28;20163;-43
2022/08/10 08:16:36;;;;;;;3.78;3.45;;;24.80;50.20;25.50;101745.00;;;;5026414;28;20784;-44
2022/08/10 08:19:02;;;;;;;3.35;3.10;;;24.80;50.10;25.50;101750.00;;;;5027048;28;20579;-43
2022/08/10 08:21:28;;;;;;;3.53;3.22;;;24.80;50.20;25.50;101743.00;;;;5027340;28;20179;-44
2022/08/10 08:23:54;;;;;;;3.10;2.90;;;24.80;50.30;25.50;101732.00;;;;5026902;28;20198;-38
2022/08/10 08:26:21;;;;;;;3.22;2.92;;;24.90;50.30;25.50;101738.00;;;;5026925;28;20225;-44
2022/08/10 08:28:47;;;;;;;3.20;2.90;;;24.90;50.50;25.50;101739.00;;;;5026772;28;20174;-43
2022/08/10 08:31:13;;;;;;;3.17;2.88;;;24.80;50.50;25.50;101745.00;;;;5026998;28;20261;-43
2022/08/10 08:33:40;;;;;;;3.20;3.00;;;24.80;50.60;25.50;101741.00;;;;5027339;28;20190;-44
2022/08/10 08:36:06;;;;;;;3.03;2.73;;;24.90;50.80;25.50;101720.00;;;;5026953;28;20666;-43
2022/08/10 08:38:32;;;;;;;3.58;3.00;;;24.90;50.70;25.50;101738.00;;;;5026323;28;20175;-43
2022/08/10 08:41:18;;;;;;;3.10;2.80;;;24.90;50.70;25.50;101729.00;;;;5026564;28;20174;-43
2022/08/10 08:44:10;;;;;;;3.13;2.92;;;24.90;50.80;25.60;101737.00;;;;5026415;28;20171;-43
2022/08/10 08:47:24;;;;;;;3.50;3.20;;;24.90;50.90;25.60;101729.00;;;;5027457;28;20677;-43
2022/08/10 08:50:01;;;;;;;2.97;2.70;;;24.90;50.90;25.60;101727.00;;;;4973130;28;20328;-43
2022/08/10 08:52:54;;;;;;;3.10;2.90;;;24.90;51.10;25.60;101715.00;;;;5027705;28;21016;-43
2022/08/10 08:55:47;;;;;;;2.90;2.70;;;24.90;51.20;25.60;101715.00;;;;5027463;28;20175;-43
2022/08/10 08:58:27;;;;;;;3.05;2.80;;;24.90;51.40;25.60;101717.00;;;;5042939;28;20246;-42
2022/08/10 09:01:40;;;;;;;3.17;2.97;;;24.90;51.60;25.60;101716.00;;;;5027536;28;20163;-42
2022/08/10 09:04:27;;;;;;;3.65;3.00;;;24.90;51.90;25.60;101711.00;;;;5027177;28;20193;-43
2022/08/10 09:07:22;;;;;;;3.30;3.00;;;24.90;52.00;25.60;101714.00;;;;5027067;28;20661;-43
2022/08/10 09:10:25;;;;;;;2.92;2.72;;;24.90;52.00;25.60;101703.00;;;;5027086;28;20183;-41
2022/08/10 09:13:07;;;;;;;3.20;3.00;;;24.90;52.00;25.60;101696.00;;;;5027122;28;20803;-43
2022/08/10 09:15:59;;;;;;;3.10;2.80;;;24.90;52.20;25.60;101704.00;;;;5026809;28;20629;-44
2022/08/10 09:18:55;;;;;;;3.00;2.80;;;25.00;52.30;25.60;101708.00;;;;5029263;28;20163;-44
2022/08/10 09:22:07;;;;;;;3.20;2.90;;;25.00;52.40;25.60;101702.00;;;;5042618;28;20167;-44
2022/08/10 09:25:11;;;;;;;2.75;2.55;;;25.00;52.50;25.60;101698.00;;;;5042468;28;20210;-42
2022/08/10 09:27:46;;;;;;;2.90;2.63;;;25.00;52.30;25.60;101687.00;;;;5024864;28;20218;-44
2022/08/10 09:30:17;;;;;;;3.08;2.88;;;25.00;52.50;25.70;101682.00;;;;5025950;28;20185;-43
2022/08/10 09:32:55;;;;;;;2.78;2.58;;;25.00;52.50;25.70;101684.00;;;;5027387;28;20700;-44
2022/08/10 09:35:41;;;;;;;3.00;2.80;;;25.00;52.50;25.70;101690.00;;;;5046877;28;20158;-42
2022/08/10 09:38:50;;;;;;;2.85;2.65;;;25.10;52.80;25.70;101686.00;;;;5030787;28;20813;-42
2022/08/10 09:41:35;;;;;;;2.90;2.70;;;25.10;52.70;25.70;101674.00;;;;5044529;28;20155;-43
2022/08/10 09:44:29;;;;;;;3.03;2.83;;;25.10;52.70;25.70;101682.00;;;;5048035;28;20652;-48
2022/08/10 09:47:29;;;;;;;3.00;2.80;;;25.10;52.80;25.70;101680.00;;;;5052981;28;20206;-43
2022/08/10 09:50:41;;;;;;;3.05;2.75;;;25.20;52.80;25.70;101665.00;;;;5026264;28;20185;-42
2022/08/10 09:53:32;;;;;;;2.80;2.60;;;25.20;52.80;25.70;101665.00;;;;5026490;28;20190;-43
2022/08/10 09:56:22;;;;;;;2.97;2.78;;;25.20;53.00;25.70;101668.00;;;;5025567;28;20210;-43
2022/08/10 09:59:34;;;;;;;3.05;2.80;;;25.20;53.00;25.80;101665.00;;;;5026492;28;20542;-42
2022/08/10 10:02:11;;;;;;;3.80;2.85;;;25.20;53.00;25.70;101664.00;;;;4968162;28;20254;-42
2022/08/10 10:04:56;;;;;;;3.30;2.75;;;25.30;54.30;25.80;101655.00;;;;4968764;28;20187;-43
2022/08/10 10:07:25;;;;;;;5.57;2.90;;;25.30;54.50;25.80;101653.00;;;;5014810;28;20309;-44
2022/08/10 10:09:59;;;;;;;3.45;3.00;;;25.40;54.60;25.90;101653.00;;;;5026339;28;20183;-43
2022/08/10 10:12:57;;;;;;;3.10;2.80;;;25.40;54.70;25.90;101643.00;;;;4967260;28;20226;-44
2022/08/10 10:15:33;;;;;;;2.80;2.60;;;25.40;55.50;25.90;101640.00;;;;5003149;28;20237;-43
2022/08/10 10:18:22;;;;;;;3.78;2.67;;;25.50;54.90;26.00;101642.00;;;;5000231;28;20646;-42
2022/08/10 10:20:59;;;;;;;2.88;2.67;;;25.50;54.80;26.00;101638.00;;;;5016923;28;20180;-42
2022/08/10 10:23:43;;;;;;;4.65;2.67;;;25.50;54.70;26.00;101630.00;;;;4999607;28;20254;-44
2022/08/10 10:26:25;;;;;;;4.30;2.55;;;25.60;54.70;26.00;101627.00;;;;5015233;28;20196;-43
2022/08/10 10:29:30;;;;;;;3.38;2.50;;;25.60;54.70;26.10;101623.00;;;;5004149;28;20191;-44
2022/08/10 10:32:20;;;;;;;3.58;2.60;;;25.60;54.70;26.10;101640.00;;;;5009658;28;20211;-43
2022/08/10 10:35:08;;;;;;;2.83;2.63;;;25.70;54.50;26.20;101635.00;;;;4992523;28;20191;-43
2022/08/10 10:37:33;;;;;;;3.80;2.55;;;25.70;54.70;26.20;101629.00;;;;5011286;28;20194;-43
2022/08/10 10:40:01;;;;;;;3.92;2.83;;;25.70;54.70;26.20;101627.00;;;;5022900;28;20190;-43
2022/08/10 10:43:06;;;;;;;2.92;2.72;;;25.70;54.70;26.30;101619.00;;;;5010624;28;20249;-42
2022/08/10 10:45:53;;;;;;;3.17;2.80;;;25.80;54.80;26.30;101618.00;;;;5001595;28;20194;-43
2022/08/10 10:48:59;;;;;;;3.85;2.72;;;25.80;54.80;26.30;101623.00;;;;5020905;28;20198;-42
2022/08/10 10:51:48;;;;;;;2.85;2.50;;;25.80;54.80;26.40;101613.00;;;;5020415;28;20222;-43
2022/08/10 10:54:39;;;;;;;2.97;2.67;;;25.90;54.80;26.40;101614.00;;;;5020581;28;20716;-42
2022/08/10 10:57:21;;;;;;;3.83;2.78;;;25.90;54.60;26.40;101614.00;;;;5032370;28;20208;-44
2022/08/10 11:00:07;;;;;;;2.95;2.75;;;25.90;54.40;26.40;101615.00;;;;5023289;28;20189;-43
2022/08/10 11:03:27;;;;;;;5.72;2.90;;;26.00;54.30;26.50;101605.00;;;;5011367;28;20205;-42
2022/08/10 11:06:36;;;;;;;5.35;2.78;;;26.00;54.10;26.50;101603.00;;;;5010621;28;20759;-44
2022/08/10 11:09:08;;;;;;;2.90;2.70;;;26.00;54.10;26.50;101592.00;;;;5024946;28;20179;-44
2022/08/10 11:11:35;;;;;;;2.95;2.75;;;26.10;54.10;26.50;101588.00;;;;5029415;28;20191;-44
2022/08/10 11:14:15;;;;;;;2.97;2.60;;;26.10;54.00;26.60;101588.00;;;;4959803;28;20179;-44
2022/08/10 11:16:56;;;;;;;2.97;2.67;;;26.10;53.90;26.60;101587.00;;;;5022879;28;20629;-43